Time;durP1;ratioP1;P1;durP2;ratioP2;P2;SDS_P1;SDS_P2;PMS_P1;PMS_P2;Temp;Humidity;BMP_temperature;BMP_pressure;BME280_temperature;BME280_humidity;BME280_pressure;Samples;Min_cycle;Max_cycle;Signal;HPM_P1;HPM_P2
2022/07/21 00:02:07;;;;;;;5.47;4.97;;;;;;;23.97;45.00;99548.22;1753807;82;20983;-39
2022/07/21 00:04:34;;;;;;;4.53;4.10;;;;;;;23.91;45.19;99546.20;1753748;82;21003;-39
2022/07/21 00:07:00;;;;;;;9.33;4.50;;;;;;;23.87;45.53;99544.86;1753701;82;21489;-41
2022/07/21 00:09:25;;;;;;;6.53;4.12;;;;;;;23.81;45.70;99544.98;1753798;81;21062;-39
2022/07/21 00:11:51;;;;;;;7.08;4.03;;;;;;;23.77;45.90;99544.95;1753685;82;20983;-41
2022/07/21 00:14:17;;;;;;;5.37;3.77;;;;;;;23.72;46.07;99544.12;1753697;82;20991;-42
2022/07/21 00:16:43;;;;;;;11.68;4.17;;;;;;;23.70;46.23;99541.23;1753803;81;20956;-42
2022/07/21 00:19:10;;;;;;;5.30;3.62;;;;;;;23.67;46.29;99545.10;1753677;81;21018;-42
2022/07/21 00:21:36;;;;;;;7.65;4.30;;;;;;;23.61;46.73;99547.08;1753912;81;20963;-46
2022/07/21 00:24:03;;;;;;;8.90;4.20;;;;;;;23.57;46.82;99545.73;1753921;82;20979;-44
2022/07/21 00:26:29;;;;;;;9.37;4.47;;;;;;;23.50;46.95;99545.56;1753969;81;20944;-41
2022/07/21 00:28:54;;;;;;;8.35;4.30;;;;;;;23.43;47.37;99545.00;1753778;81;21482;-44
2022/07/21 00:31:20;;;;;;;8.03;3.98;;;;;;;23.35;47.54;99549.33;1753789;82;21461;-40
2022/07/21 00:33:46;;;;;;;7.30;4.40;;;;;;;23.31;47.63;99537.75;1753719;81;21375;-43
2022/07/21 00:36:12;;;;;;;7.92;4.45;;;;;;;23.27;47.80;99541.27;1753774;82;21460;-43
2022/07/21 00:38:38;;;;;;;6.42;4.60;;;;;;;23.23;48.22;99543.93;1753776;82;20971;-39
2022/07/21 00:41:04;;;;;;;5.62;4.17;;;;;;;23.19;48.44;99551.45;1753713;82;20960;-42
2022/07/21 00:43:30;;;;;;;5.58;4.05;;;;;;;23.17;48.66;99556.63;1753665;82;21003;-40
2022/07/21 00:45:56;;;;;;;6.35;4.50;;;;;;;23.15;48.71;99555.95;1753690;82;21022;-42
2022/07/21 00:48:22;;;;;;;6.87;4.40;;;;;;;23.14;48.63;99554.25;1753598;82;21014;-45
2022/07/21 00:50:48;;;;;;;7.83;4.37;;;;;;;23.13;48.92;99553.92;1753720;82;21465;-42
2022/07/21 00:53:14;;;;;;;4.22;3.80;;;;;;;23.08;49.15;99559.75;1753941;82;21469;-42
2022/07/21 00:55:43;;;;;;;6.90;4.65;;;;;;;23.03;49.23;99556.70;1753768;82;21465;-43
2022/07/21 00:58:10;;;;;;;8.25;4.75;;;;;;;22.96;49.54;99549.78;1753732;82;21472;-41
2022/07/21 01:00:36;;;;;;;6.40;4.53;;;;;;;22.93;49.67;99554.11;1753822;82;21457;-40
2022/07/21 01:03:03;;;;;;;7.12;4.67;;;;;;;22.93;49.50;99555.96;1753662;81;20988;-44
2022/07/21 01:05:29;;;;;;;6.23;4.27;;;;;;;22.91;49.68;99550.75;1753924;82;20983;-38
2022/07/21 01:08:02;;;;;;;6.10;4.05;;;;;;;22.93;49.88;99551.94;1753693;81;20948;-44
2022/07/21 01:10:24;;;;;;;8.60;4.00;;;;;;;22.88;49.79;99560.44;1753207;82;20975;-45
2022/07/21 01:12:51;;;;;;;5.47;3.87;;;;;;;22.83;50.14;99560.09;1753924;81;20971;-41
2022/07/21 01:15:19;;;;;;;6.05;4.45;;;;;;;22.78;50.43;99554.36;1753792;82;20975;-42
2022/07/21 01:17:46;;;;;;;6.53;4.35;;;;;;;22.78;50.36;99553.85;1753694;82;20979;-42
2022/07/21 01:20:16;;;;;;;6.47;4.57;;;;;;;22.75;50.57;99558.69;1753943;81;21010;-43
2022/07/21 01:22:45;;;;;;;6.70;4.37;;;;;;;22.70;50.62;99559.64;1753552;81;21014;-38
2022/07/21 01:25:12;;;;;;;5.33;4.20;;;;;;;22.65;51.12;99558.80;1753659;80;21448;-43
2022/07/21 01:27:38;;;;;;;5.97;4.20;;;;;;;22.61;51.02;99549.36;1753794;82;20978;-41
2022/07/21 01:30:07;;;;;;;7.50;3.92;;;;;;;22.60;50.88;99555.73;1753826;81;20956;-45
2022/07/21 01:32:36;;;;;;;9.48;4.40;;;;;;;22.54;51.11;99547.82;1753615;82;20960;-44
2022/07/21 01:35:07;;;;;;;7.83;4.55;;;;;;;22.52;51.55;99549.81;1753677;81;20984;-47
2022/07/21 01:37:37;;;;;;;6.70;4.12;;;;;;;22.49;51.46;99551.97;1753778;82;20979;-47
2022/07/21 01:42:48;;;;;;;8.48;4.65;;;;;;;22.44;51.61;99551.08;1730103;82;21465;-41
2022/07/21 01:45:14;;;;;;;5.33;4.10;;;;;;;22.41;51.68;99555.39;1753681;80;21469;-44
2022/07/21 01:47:40;;;;;;;13.90;4.87;;;;;;;22.36;51.81;99554.53;1753632;82;21429;-41
2022/07/21 01:50:08;;;;;;;4.55;3.67;;;;;;;22.35;51.87;99557.36;1753652;80;21018;-44
2022/07/21 01:52:34;;;;;;;6.35;3.80;;;;;;;22.31;52.05;99550.13;1753785;81;20972;-41
2022/07/21 01:54:59;;;;;;;6.92;4.35;;;;;;;22.27;52.34;99550.61;1753633;80;20989;-42
2022/07/21 01:57:25;;;;;;;9.73;4.05;;;;;;;22.28;52.17;99544.23;1753615;82;20992;-45
2022/07/21 01:59:51;;;;;;;7.50;4.47;;;;;;;22.27;52.42;99534.54;1753618;82;20980;-42
2022/07/21 02:02:20;;;;;;;9.70;4.22;;;;;;;22.23;52.47;99535.31;1753634;82;20984;-41
2022/07/21 02:04:44;;;;;;;8.65;4.15;;;;;;;22.20;52.63;99533.77;1753185;82;21003;-40
2022/07/21 02:07:10;;;;;;;7.80;4.65;;;;;;;22.19;52.64;99533.91;1753648;81;20975;-44
2022/07/21 02:09:36;;;;;;;8.70;4.78;;;;;;;22.12;53.14;99531.03;1753656;82;21410;-46
2022/07/21 02:12:02;;;;;;;8.68;4.40;;;;;;;22.11;53.11;99528.50;1753636;82;20975;-39
2022/07/21 02:14:27;;;;;;;10.35;4.72;;;;;;;22.13;52.84;99530.02;1753615;82;20956;-45
2022/07/21 02:16:53;;;;;;;6.20;4.28;;;;;;;22.09;53.15;99526.47;1753613;81;20960;-39
2022/07/21 02:19:19;;;;;;;9.95;4.58;;;;;;;22.06;53.43;99524.92;1753703;82;21014;-45
2022/07/21 02:21:45;;;;;;;6.45;4.33;;;;;;;22.04;53.28;99529.09;1753674;82;21496;-42
2022/07/21 02:24:10;;;;;;;8.45;4.15;;;;;;;22.03;53.50;99529.27;1753682;82;21465;-40
2022/07/21 02:26:36;;;;;;;6.55;4.42;;;;;;;22.00;53.55;99534.92;1753621;82;21472;-45
2022/07/21 02:29:02;;;;;;;7.03;3.72;;;;;;;21.98;53.60;99527.03;1753693;82;21004;-45
2022/07/21 02:31:28;;;;;;;6.05;3.90;;;;;;;21.97;53.68;99536.55;1753886;82;21481;-45
2022/07/21 02:33:54;;;;;;;8.40;4.50;;;;;;;21.97;53.52;99528.02;1753656;82;21140;-42
2022/07/21 02:36:21;;;;;;;7.30;4.17;;;;;;;21.94;53.72;99531.49;1753813;82;20979;-45
2022/07/21 02:38:46;;;;;;;7.33;4.78;;;;;;;21.94;53.64;99536.84;1753848;82;20971;-45
2022/07/21 02:43:30;;;;;;;8.30;4.25;;;;;;;21.97;53.88;99543.25;1800815;79;23317;-41
2022/07/21 02:45:56;;;;;;;8.48;4.17;;;;;;;21.92;53.80;99548.21;1761791;80;21539;-43
2022/07/21 02:48:22;;;;;;;13.05;4.35;;;;;;;21.89;53.93;99548.53;1761731;81;20995;-40
2022/07/21 02:50:48;;;;;;;8.43;4.78;;;;;;;21.86;53.77;99544.30;1761725;80;21469;-43
2022/07/21 02:53:19;;;;;;;5.40;4.47;;;;;;;21.81;54.13;99545.25;1761718;81;21002;-43
2022/07/21 02:55:51;;;;;;;4.85;4.03;;;;;;;21.81;54.13;99551.47;1761748;81;21003;-44
2022/07/21 02:58:22;;;;;;;6.97;4.17;;;;;;;21.80;54.16;99543.08;1761671;80;21030;-40
2022/07/21 03:00:55;;;;;;;7.12;4.55;;;;;;;21.75;54.67;99537.83;1741537;81;21507;-40
2022/07/21 03:03:24;;;;;;;8.40;4.40;;;;;;;21.75;54.52;99539.17;1761732;81;21092;-39
2022/07/21 03:05:50;;;;;;;10.38;4.67;;;;;;;21.75;54.63;99539.17;1761758;81;20994;-43
2022/07/21 03:08:17;;;;;;;4.33;3.90;;;;;;;21.72;54.84;99534.11;1761958;81;21435;-44
2022/07/21 03:10:44;;;;;;;6.65;4.65;;;;;;;21.70;54.84;99528.91;1761811;81;21429;-41
2022/07/21 03:13:10;;;;;;;8.15;4.90;;;;;;;21.68;54.95;99525.54;1761811;81;21476;-44
2022/07/21 03:15:36;;;;;;;8.83;4.85;;;;;;;21.70;54.92;99529.41;1761774;80;21590;-45
2022/07/21 03:18:03;;;;;;;5.67;4.78;;;;;;;21.67;55.03;99523.88;1761851;81;21003;-40
2022/07/21 03:20:33;;;;;;;10.75;5.00;;;;;;;21.68;54.96;99522.03;1761836;81;21043;-41
2022/07/21 03:22:58;;;;;;;14.63;4.75;;;;;;;21.66;55.13;99526.19;1761730;81;21503;-39
2022/07/21 03:25:25;;;;;;;8.85;5.30;;;;;;;21.62;55.51;99526.16;1761735;80;21035;-45
2022/07/21 03:27:52;;;;;;;6.65;4.45;;;;;;;21.61;55.36;99523.12;1761902;80;21472;-44
2022/07/21 03:30:19;;;;;;;10.23;4.80;;;;;;;21.61;55.38;99521.78;1761782;81;20995;-42
2022/07/21 03:32:45;;;;;;;8.95;4.72;;;;;;;21.61;55.30;99523.12;1761914;81;21535;-40
2022/07/21 03:35:12;;;;;;;10.93;4.75;;;;;;;21.57;55.63;99521.23;1761790;81;21030;-42
2022/07/21 03:37:43;;;;;;;;;;;;;;;21.59;55.67;99522.43;1764345;81;21574;-40
2022/07/21 03:40:12;;;;;;;6.45;4.87;;;;;;;21.56;57.25;99522.25;1760604;81;20148;-44
2022/07/21 03:42:38;;;;;;;8.08;4.85;;;;;;;21.59;55.46;99528.64;1754298;81;21067;-42
2022/07/21 03:45:06;;;;;;;7.25;4.62;;;;;;;21.58;55.83;99522.10;1748642;81;21552;-39
2022/07/21 03:47:32;;;;;;;6.97;4.50;;;;;;;21.58;55.89;99516.75;1748566;81;21003;-39
2022/07/21 03:49:58;;;;;;;7.87;4.40;;;;;;;21.60;55.75;99522.80;1748656;81;21004;-41
2022/07/21 03:52:24;;;;;;;8.40;4.90;;;;;;;21.60;56.01;99520.95;1748566;81;21031;-45
2022/07/21 03:54:50;;;;;;;11.08;5.08;;;;;;;21.61;55.82;99519.97;1748113;81;21050;-46
2022/07/21 03:57:16;;;;;;;7.70;4.78;;;;;;;21.64;55.67;99512.95;1748118;81;20999;-43
2022/07/21 03:59:41;;;;;;;9.25;4.47;;;;;;;21.63;55.90;99512.63;1748105;81;21516;-45
2022/07/21 04:02:07;;;;;;;10.40;4.72;;;;;;;21.64;55.83;99509.45;1748094;81;21493;-41
2022/07/21 04:04:33;;;;;;;5.42;4.60;;;;;;;21.65;55.73;99510.64;1748112;82;20991;-45
2022/07/21 04:06:59;;;;;;;8.03;4.55;;;;;;;21.66;55.67;99509.62;1748023;81;21035;-41
2022/07/21 04:09:24;;;;;;;9.90;4.60;;;;;;;21.66;55.90;99511.47;1748020;81;20968;-40
2022/07/21 04:11:50;;;;;;;36.15;6.50;;;;;;;21.67;55.68;99514.51;1748073;81;20999;-40
2022/07/21 04:14:16;;;;;;;11.88;4.42;;;;;;;21.68;55.78;99514.00;1748132;81;20992;-46
2022/07/21 04:16:41;;;;;;;7.25;4.62;;;;;;;21.67;56.13;99511.83;1748086;82;21027;-46
2022/07/21 04:19:07;;;;;;;10.03;4.92;;;;;;;21.65;55.96;99517.33;1748144;81;21469;-37
2022/07/21 04:21:33;;;;;;;9.63;4.53;;;;;;;21.68;55.75;99520.19;1747162;81;22219;-47
2022/07/21 04:23:59;;;;;;;8.43;4.90;;;;;;;21.70;55.83;99515.52;1746917;81;21534;-45
2022/07/21 04:26:27;;;;;;;9.65;4.72;;;;;;;21.70;55.79;99514.19;1746640;81;21059;-45
2022/07/21 04:28:54;;;;;;;10.48;4.75;;;;;;;21.68;56.00;99512.16;1746876;81;21165;-42
2022/07/21 04:31:20;;;;;;;7.78;4.45;;;;;;;21.70;55.78;99514.69;1748126;82;20980;-41
2022/07/21 04:33:45;;;;;;;7.15;4.62;;;;;;;21.69;55.92;99511.18;1748103;81;21508;-37
2022/07/21 04:36:11;;;;;;;9.75;4.80;;;;;;;21.69;56.01;99505.83;1748085;81;21481;-42
2022/07/21 04:38:37;;;;;;;7.53;4.58;;;;;;;21.70;56.05;99508.83;1748129;81;21524;-44
2022/07/21 04:41:03;;;;;;;9.20;4.60;;;;;;;21.70;56.08;99509.34;1748167;81;20980;-40
2022/07/21 04:43:29;;;;;;;5.78;4.33;;;;;;;21.72;55.90;99506.01;1758133;81;21524;-39
2022/07/21 04:45:55;;;;;;;6.25;4.25;;;;;;;21.70;56.27;99511.51;1744381;81;21523;-42
2022/07/21 04:48:21;;;;;;;14.63;5.08;;;;;;;21.70;56.20;99511.51;1761378;80;21467;-41
2022/07/21 04:50:46;;;;;;;7.40;4.72;;;;;;;21.71;56.38;99514.55;1761348;81;20983;-40
2022/07/21 04:53:12;;;;;;;8.13;4.90;;;;;;;21.75;56.35;99518.59;1761414;81;20988;-45
2022/07/21 04:55:38;;;;;;;7.87;4.53;;;;;;;21.77;56.37;99528.65;1761349;81;20963;-40
2022/07/21 04:58:03;;;;;;;7.35;4.83;;;;;;;21.81;56.21;99531.87;1761363;81;20988;-42
2022/07/21 05:00:29;;;;;;;12.98;4.70;;;;;;;21.84;56.17;99539.60;1761361;81;20994;-46
2022/07/21 05:02:55;;;;;;;7.97;4.33;;;;;;;21.85;56.18;99535.95;1761320;81;20989;-44
2022/07/21 05:05:23;;;;;;;8.33;4.60;;;;;;;21.90;56.07;99534.97;1761266;81;20995;-48
2022/07/21 05:07:49;;;;;;;4.70;4.25;;;;;;;21.93;56.11;99534.67;1761358;80;21500;-48
2022/07/21 05:10:18;;;;;;;6.83;4.35;;;;;;;21.95;55.86;99531.85;1761396;81;20987;-42
2022/07/21 05:12:44;;;;;;;11.18;4.37;;;;;;;21.95;55.99;99527.33;1761326;80;21496;-42
2022/07/21 05:15:13;;;;;;;6.62;4.28;;;;;;;21.99;55.90;99529.20;1761367;81;20999;-40
2022/07/21 05:17:40;;;;;;;8.45;4.40;;;;;;;22.02;55.77;99524.89;1761342;81;21003;-39
2022/07/21 05:20:08;;;;;;;7.20;4.08;;;;;;;22.07;55.61;99523.11;1761409;81;21532;-42
2022/07/21 05:22:33;;;;;;;11.00;4.65;;;;;;;22.09;55.76;99523.80;1760500;81;21066;-46
2022/07/21 05:24:59;;;;;;;10.55;4.35;;;;;;;22.11;55.69;99521.30;1760790;80;21042;-40
2022/07/21 05:27:25;;;;;;;4.30;3.72;;;;;;;22.16;55.74;99521.69;1761400;81;20980;-41
2022/07/21 05:29:50;;;;;;;8.60;4.17;;;;;;;22.19;55.61;99524.06;1761329;80;20988;-42
2022/07/21 05:32:16;;;;;;;8.70;4.45;;;;;;;22.22;55.40;99527.75;1761411;81;20977;-47
2022/07/21 05:34:42;;;;;;;8.10;4.22;;;;;;;22.26;55.26;99527.45;1761335;81;21527;-36
2022/07/21 05:37:08;;;;;;;6.83;4.20;;;;;;;22.28;55.31;99524.98;1761399;81;21591;-40
2022/07/21 05:39:34;;;;;;;8.55;3.62;;;;;;;22.27;55.32;99526.50;1761392;81;20987;-40
2022/07/21 05:42:00;;;;;;;7.47;4.65;;;;;;;22.29;55.22;99528.52;1761063;81;20980;-46
2022/07/21 05:44:26;;;;;;;8.85;4.25;;;;;;;22.29;55.04;99528.02;1748000;81;21034;-41
2022/07/21 05:46:52;;;;;;;7.22;3.87;;;;;;;22.34;54.87;99526.20;1747940;81;21023;-42
2022/07/21 05:49:18;;;;;;;5.90;4.42;;;;;;;22.32;55.01;99534.41;1747949;81;20995;-37
2022/07/21 05:51:43;;;;;;;10.80;4.33;;;;;;;22.38;54.71;99538.31;1748028;81;20984;-39
2022/07/21 05:54:09;;;;;;;5.72;4.12;;;;;;;22.40;54.73;99536.31;1748073;81;21466;-44
2022/07/21 05:56:35;;;;;;;8.55;4.20;;;;;;;22.43;54.59;99541.38;1748053;81;21438;-46
2022/07/21 05:59:00;;;;;;;7.40;4.47;;;;;;;22.46;54.60;99546.91;1748060;81;21481;-38
2022/07/21 06:01:26;;;;;;;4.58;4.03;;;;;;;22.50;54.56;99542.91;1748053;81;21003;-43
2022/07/21 06:03:52;;;;;;;9.28;4.40;;;;;;;22.51;54.64;99553.48;1747911;81;21534;-45
2022/07/21 06:06:19;;;;;;;8.33;4.08;;;;;;;22.55;54.70;99546.80;1748113;81;21457;-44
2022/07/21 06:08:47;;;;;;;;;;;;;;;22.61;54.43;99542.66;1750615;82;20960;-46
2022/07/21 06:11:17;;;;;;;7.10;4.05;;;;;;;22.61;54.60;99541.31;1747974;81;20113;-41
2022/07/21 06:13:44;;;;;;;9.60;4.15;;;;;;;22.67;54.35;99543.39;1748037;81;21026;-42
2022/07/21 06:16:10;;;;;;;7.80;4.12;;;;;;;22.69;54.45;99536.03;1748132;81;21567;-41
2022/07/21 06:18:36;;;;;;;8.13;4.22;;;;;;;22.75;54.16;99547.45;1747948;82;20995;-38
2022/07/21 06:21:03;;;;;;;5.67;4.37;;;;;;;22.81;54.05;99545.98;1748171;81;21018;-38
2022/07/21 06:23:29;;;;;;;9.63;4.05;;;;;;;22.88;54.07;99554.24;1748026;82;20991;-45
2022/07/21 06:25:56;;;;;;;6.28;4.37;;;;;;;22.93;54.00;99546.58;1747932;81;20995;-41
2022/07/21 06:28:22;;;;;;;13.27;4.60;;;;;;;22.97;53.95;99544.73;1748208;81;21031;-41
2022/07/21 06:30:50;;;;;;;7.47;4.30;;;;;;;23.04;54.02;99542.30;1748034;81;21468;-41
2022/07/21 06:33:16;;;;;;;9.28;4.50;;;;;;;23.12;53.87;99544.19;1747983;81;21035;-41
2022/07/21 06:35:42;;;;;;;14.47;4.57;;;;;;;23.16;53.73;99550.94;1748159;81;21026;-42
2022/07/21 06:38:09;;;;;;;7.67;4.12;;;;;;;23.17;53.47;99544.05;1748246;81;20987;-43
2022/07/21 06:40:35;;;;;;;8.65;4.55;;;;;;;23.25;53.43;99545.95;1747997;81;20991;-46
2022/07/21 06:43:01;;;;;;;10.40;4.45;;;;;;;23.30;53.42;99547.66;1748093;81;21461;-48
2022/07/21 06:45:27;;;;;;;6.15;4.00;;;;;;;23.32;53.30;99556.38;1747931;81;20956;-47
2022/07/21 06:48:07;;;;;;;13.32;5.30;;;;;;;23.37;53.14;99554.54;1748037;81;20980;-41
2022/07/21 06:50:34;;;;;;;14.60;4.80;;;;;;;23.43;53.16;99563.79;1747933;82;21003;-41
2022/07/21 06:53:01;;;;;;;11.20;4.92;;;;;;;23.46;53.13;99555.42;1748058;81;20996;-46
2022/07/21 06:55:28;;;;;;;12.95;4.67;;;;;;;23.50;52.99;99568.85;1748102;81;21473;-43
2022/07/21 06:57:54;;;;;;;13.13;4.12;;;;;;;23.54;52.95;99567.04;1747988;82;20991;-41
2022/07/21 07:00:20;;;;;;;6.72;4.10;;;;;;;23.58;52.87;99565.70;1747912;81;20956;-42
2022/07/21 07:02:46;;;;;;;12.07;4.97;;;;;;;23.66;52.65;99564.89;1748107;81;21027;-43
2022/07/21 07:05:12;;;;;;;12.10;4.45;;;;;;;23.67;52.67;99559.87;1748045;81;20995;-42
2022/07/21 07:07:38;;;;;;;9.90;4.37;;;;;;;23.75;52.60;99560.39;1747926;81;21453;-41
2022/07/21 07:10:06;;;;;;;12.30;7.15;;;;;;;23.82;52.71;99560.63;1748065;81;21456;-37
2022/07/21 07:12:32;;;;;;;8.85;5.58;;;;;;;23.87;52.53;99564.48;1747823;81;21030;-44
2022/07/21 07:14:58;;;;;;;8.90;4.70;;;;;;;23.95;52.50;99563.66;1748347;81;21022;-41
2022/07/21 07:17:24;;;;;;;19.70;4.60;;;;;;;24.01;52.49;99567.02;1748020;81;20992;-42
2022/07/21 07:19:49;;;;;;;5.25;4.37;;;;;;;24.08;52.20;99558.64;1747989;81;21039;-40
2022/07/21 07:22:16;;;;;;;6.00;4.70;;;;;;;24.13;51.98;99565.70;1747939;82;20956;-41
2022/07/21 07:24:42;;;;;;;11.38;4.45;;;;;;;24.21;51.72;99559.50;1747946;81;21030;-39
2022/07/21 07:27:07;;;;;;;12.33;4.17;;;;;;;24.26;51.74;99559.01;1747982;81;21457;-40
2022/07/21 07:29:33;;;;;;;9.98;5.30;;;;;;;24.32;51.55;99565.05;1748159;82;21461;-43
2022/07/21 07:32:00;;;;;;;8.10;4.17;;;;;;;24.37;51.42;99566.73;1748121;81;21003;-42
2022/07/21 07:34:26;;;;;;;12.13;5.90;;;;;;;24.45;51.30;99562.72;1748464;81;21430;-45
2022/07/21 07:36:52;;;;;;;11.93;5.00;;;;;;;24.53;51.19;99565.42;1748047;81;20964;-44
2022/07/21 07:39:17;;;;;;;7.00;5.15;;;;;;;24.63;51.00;99561.72;1748047;81;20983;-44
2022/07/21 07:41:44;;;;;;;11.65;5.35;;;;;;;24.66;50.78;99554.16;1747922;81;21318;-45
2022/07/21 07:44:10;;;;;;;10.60;5.10;;;;;;;24.73;50.40;99562.91;1757476;80;21019;-41
2022/07/21 07:46:36;;;;;;;10.30;4.08;;;;;;;24.81;50.49;99566.92;1761601;81;21026;-46
2022/07/21 07:49:02;;;;;;;14.63;4.95;;;;;;;24.90;50.41;99570.80;1761397;81;21150;-42
2022/07/21 07:51:28;;;;;;;6.93;4.67;;;;;;;24.97;49.98;99572.78;1761585;81;20995;-40
2022/07/21 07:53:54;;;;;;;6.15;4.37;;;;;;;25.03;49.73;99570.27;1761388;81;21453;-40
2022/07/21 07:56:20;;;;;;;8.80;4.40;;;;;;;25.12;49.70;99567.02;1761402;81;21488;-48
2022/07/21 07:58:45;;;;;;;9.60;5.28;;;;;;;25.24;49.74;99575.10;1761463;81;21844;-44
2022/07/21 08:01:11;;;;;;;10.55;7.53;;;;;;;25.35;49.38;99571.72;1761401;81;21550;-46
2022/07/21 08:03:37;;;;;;;15.23;5.37;;;;;;;25.45;49.13;99569.64;1761457;80;21515;-42
2022/07/21 08:06:05;;;;;;;16.55;5.60;;;;;;;25.51;48.79;99569.47;1761462;81;21495;-43
2022/07/21 08:08:32;;;;;;;9.30;4.40;;;;;;;25.60;48.68;99566.56;1761461;81;20956;-45
2022/07/21 08:10:58;;;;;;;9.83;5.00;;;;;;;25.70;48.43;99558.25;1761432;80;20975;-40
2022/07/21 08:13:25;;;;;;;9.65;4.42;;;;;;;25.82;48.16;99558.71;1761427;81;20983;-41
2022/07/21 08:15:51;;;;;;;15.55;5.30;;;;;;;25.91;48.01;99560.34;1761518;80;20975;-40
2022/07/21 08:18:18;;;;;;;13.85;4.45;;;;;;;26.00;47.77;99562.00;1761365;81;21000;-42
2022/07/21 08:20:46;;;;;;;14.93;4.60;;;;;;;26.10;47.63;99555.02;1761514;80;20992;-38
2022/07/21 08:23:14;;;;;;;15.35;4.72;;;;;;;26.22;47.29;99560.84;1761319;81;20984;-39
2022/07/21 08:25:40;;;;;;;18.20;5.25;;;;;;;26.33;46.62;99552.84;1761435;80;21053;-48
2022/07/21 08:28:07;;;;;;;10.38;4.60;;;;;;;26.45;46.72;99543.31;1761544;80;21034;-44
2022/07/21 08:30:33;;;;;;;8.88;4.80;;;;;;;26.59;46.56;99542.48;1761484;81;21507;-44
2022/07/21 08:32:59;;;;;;;15.70;4.67;;;;;;;26.77;46.39;99542.70;1761344;81;21450;-44
2022/07/21 08:35:25;;;;;;;8.38;4.17;;;;;;;26.94;46.24;99548.77;1761467;81;21015;-42
2022/07/21 08:37:59;;;;;;;9.48;4.17;;;;;;;27.12;45.31;99551.11;1761304;81;20988;-45
2022/07/21 08:40:27;;;;;;;15.48;5.45;;;;;;;27.30;44.66;99549.41;1761299;81;21484;-42
2022/07/21 08:42:53;;;;;;;7.55;4.30;;;;;;;27.49;44.29;99547.50;1761200;80;21088;-39
2022/07/21 08:45:22;;;;;;;9.18;4.10;;;;;;;27.70;43.94;99541.81;1761503;81;20991;-40
2022/07/21 08:47:54;;;;;;;13.70;4.87;;;;;;;27.85;43.30;99548.03;1761459;80;21046;-46
2022/07/21 08:50:23;;;;;;;9.45;4.70;;;;;;;28.01;43.27;99546.14;1761316;81;21026;-41
2022/07/21 08:52:49;;;;;;;7.28;4.20;;;;;;;28.18;42.76;99546.23;1761374;81;20994;-41
2022/07/21 08:55:15;;;;;;;9.33;5.27;;;;;;;28.38;42.12;99531.53;1761627;81;20994;-40
2022/07/21 08:57:41;;;;;;;6.95;4.55;;;;;;;28.60;42.10;99532.38;1761617;81;20991;-41
2022/07/21 09:00:09;;;;;;;9.55;4.35;;;;;;;28.81;41.30;99525.23;1761630;81;20983;-46
2022/07/21 09:02:37;;;;;;;9.30;4.40;;;;;;;28.99;41.06;99529.61;1761385;80;21038;-39
2022/07/21 09:05:07;;;;;;;10.95;4.12;;;;;;;29.17;40.26;99522.35;1761313;81;20999;-43
2022/07/21 09:07:57;;;;;;;6.60;3.77;;;;;;;29.37;40.00;99525.16;1761338;81;20998;-42
2022/07/21 09:10:28;;;;;;;12.80;4.20;;;;;;;29.57;39.67;99524.41;1761331;81;21477;-44
2022/07/21 09:12:58;;;;;;;5.70;4.10;;;;;;;29.82;39.14;99524.20;1761335;81;20971;-42
2022/07/21 09:15:27;;;;;;;4.55;3.83;;;;;;;30.02;38.77;99522.89;1761290;81;20999;-40
2022/07/21 09:18:13;;;;;;;7.90;4.30;;;;;;;30.25;38.47;99517.59;1761298;81;21010;-43
2022/07/21 09:20:53;;;;;;;6.08;3.37;;;;;;;30.49;37.40;99526.19;1756246;81;20971;-42
2022/07/21 09:23:23;;;;;;;5.12;3.62;;;;;;;30.72;37.08;99523.05;1761314;81;20952;-41
2022/07/21 09:25:53;;;;;;;4.53;3.77;;;;;;;30.99;36.41;99521.16;1761356;81;21034;-41
2022/07/21 09:28:29;;;;;;;5.95;3.80;;;;;;;31.22;36.03;99516.61;1743759;81;21503;-45
2022/07/21 09:31:02;;;;;;;6.22;3.70;;;;;;;31.57;35.30;99513.56;1761704;81;21038;-40
2022/07/21 09:33:41;;;;;;;8.73;4.05;;;;;;;31.96;34.73;99511.66;1761361;81;21001;-47
2022/07/21 09:36:11;;;;;;;7.80;4.12;;;;;;;32.43;34.12;99505.91;1761329;81;20975;-41
2022/07/21 09:38:42;;;;;;;14.38;4.28;;;;;;;32.86;33.36;99504.59;1761321;81;20999;-42
2022/07/21 09:41:20;;;;;;;4.65;3.50;;;;;;;33.20;32.75;99511.91;1761340;81;21006;-43
2022/07/21 09:43:50;;;;;;;7.80;3.92;;;;;;;33.66;32.25;99511.86;1761234;80;21019;-44
2022/07/21 09:46:23;;;;;;;6.80;3.42;;;;;;;34.21;31.69;99513.59;1759899;81;21035;-46
2022/07/21 09:48:52;;;;;;;5.42;3.52;;;;;;;34.72;30.70;99506.37;1761271;81;21030;-45
2022/07/21 09:51:34;;;;;;;10.95;3.95;;;;;;;35.25;29.95;99501.27;1760690;81;21500;-41
2022/07/21 09:54:05;;;;;;;7.37;3.50;;;;;;;35.78;26.81;99499.31;1761311;81;21038;-44
2022/07/21 09:56:35;;;;;;;20.48;4.05;;;;;;;36.16;27.47;99503.81;1761342;81;20991;-38
2022/07/21 09:59:03;;;;;;;10.70;3.45;;;;;;;36.44;26.76;99512.51;1761275;81;21006;-42
2022/07/21 10:01:30;;;;;;;9.70;3.70;;;;;;;36.83;26.18;99503.82;1761230;81;21487;-42
2022/07/21 10:03:57;;;;;;;7.12;3.08;;;;;;;36.99;25.31;99502.12;1761401;81;20971;-41
2022/07/21 10:06:30;;;;;;;7.40;3.50;;;;;;;37.32;24.93;99492.70;1761298;81;20982;-41
2022/07/21 10:08:58;;;;;;;8.75;3.27;;;;;;;37.34;23.90;99503.69;1761330;81;21474;-38
2022/07/21 10:11:25;;;;;;;11.33;3.30;;;;;;;37.82;23.89;99508.06;1761293;81;21038;-37
2022/07/21 10:13:51;;;;;;;9.68;3.08;;;;;;;38.26;23.18;99507.13;1761236;81;21033;-42
2022/07/21 10:16:18;;;;;;;8.20;3.33;;;;;;;38.65;22.88;99510.47;1761353;81;20971;-41
2022/07/21 10:19:09;;;;;;;4.42;2.80;;;;;;;38.46;18.84;99507.30;1761460;81;21011;-42
2022/07/21 10:21:44;;;;;;;8.68;3.08;;;;;;;39.02;21.70;99508.78;1761298;81;21468;-45
2022/07/21 10:24:12;;;;;;;4.67;2.70;;;;;;;39.12;19.32;99506.09;1761313;80;21000;-38
2022/07/21 10:27:00;;;;;;;7.33;2.90;;;;;;;39.41;20.54;99499.59;1761330;81;20975;-47
2022/07/21 10:29:56;;;;;;;5.33;2.72;;;;;;;39.84;20.20;99504.41;1744230;81;21477;-41
2022/07/21 10:32:25;;;;;;;9.78;2.75;;;;;;;40.03;20.80;99506.10;1741292;81;21009;-43
2022/07/21 10:34:51;;;;;;;4.33;2.40;;;;;;;40.25;20.25;99503.07;1742965;81;20996;-45
2022/07/21 10:37:42;;;;;;;6.92;3.15;;;;;;;40.27;19.57;99505.55;1718481;82;21470;-40
2022/07/21 10:40:22;;;;;;;8.40;3.27;;;;;;;40.64;18.93;99508.03;1742933;82;20977;-40
2022/07/21 10:43:05;;;;;;;14.03;3.35;;;;;;;40.77;17.75;99501.11;1742910;82;20993;-36
2022/07/21 10:45:47;;;;;;;3.72;2.30;;;;;;;40.78;17.06;99508.28;1717779;81;21045;-42
2022/07/21 10:48:41;;;;;;;8.53;2.77;;;;;;;40.97;17.49;99511.81;1714093;82;21451;-40
2022/07/21 10:51:11;;;;;;;6.30;2.80;;;;;;;41.06;17.33;99519.78;1715407;84;21126;-41
2022/07/21 10:53:38;;;;;;;4.22;2.60;;;;;;;41.38;17.01;99508.92;1715612;82;21058;-42
2022/07/21 10:56:06;;;;;;;8.85;2.83;;;;;;;41.38;17.50;99508.36;1715441;82;21053;-39
2022/07/21 10:58:39;;;;;;;7.37;2.83;;;;;;;41.62;17.66;99503.01;1715456;84;20982;-41
2022/07/21 11:01:25;;;;;;;5.72;2.83;;;;;;;41.83;17.54;99495.17;1715464;83;21462;-39
2022/07/21 11:04:13;;;;;;;11.22;5.40;;;;;;;42.18;17.20;99492.13;1715445;82;21478;-40
2022/07/21 11:06:41;;;;;;;4.55;2.67;;;;;;;42.20;16.40;99494.61;1733574;81;21500;-40
2022/07/21 11:09:11;;;;;;;3.98;2.42;;;;;;;42.45;16.40;99492.73;1746283;81;20978;-40
2022/07/21 11:12:03;;;;;;;7.97;3.10;;;;;;;42.62;15.85;99496.45;1745641;81;21039;-44
2022/07/21 11:14:40;;;;;;;4.22;2.87;;;;;;;42.97;16.36;99493.86;1746243;81;21449;-44
2022/07/21 11:17:09;;;;;;;7.50;2.60;;;;;;;43.07;16.25;99495.12;1746220;82;21007;-40
2022/07/21 11:19:49;;;;;;;4.90;2.75;;;;;;;42.97;16.08;99488.90;1746203;82;21532;-38
2022/07/21 11:22:20;;;;;;;8.20;6.92;;;;;;;42.99;15.53;99486.66;1746150;82;21447;-41
2022/07/21 11:25:00;;;;;;;5.80;2.90;;;;;;;42.96;15.89;99479.78;1746289;82;20995;-39
2022/07/21 11:27:29;;;;;;;11.80;3.27;;;;;;;43.08;15.52;99488.49;1746204;82;21042;-42
2022/07/21 11:29:59;;;;;;;12.60;3.87;;;;;;;42.97;15.61;99486.95;1746163;81;21468;-46
2022/07/21 11:32:25;;;;;;;6.83;3.00;;;;;;;43.09;15.62;99494.27;1746200;82;20991;-43
2022/07/21 11:34:54;;;;;;;6.87;2.80;;;;;;;43.18;14.94;99496.40;1746209;81;21515;-44
2022/07/21 11:37:43;;;;;;;6.90;3.08;;;;;;;43.28;15.30;99493.47;1746192;82;21475;-45
2022/07/21 11:40:16;;;;;;;11.75;3.00;;;;;;;43.23;15.03;99482.50;1746199;82;20960;-42
2022/07/21 11:42:45;;;;;;;4.03;2.60;;;;;;;43.13;14.43;99477.33;1745293;81;21314;-42